createdAt,value
2023-01-12T00:00:42.512Z,5.53
2023-01-12T00:06:10.208Z,4.47
2023-01-12T00:11:16.121Z,4.33
2023-01-12T00:16:37.842Z,4.50
2023-01-12T00:22:05.700Z,4.87
2023-01-12T00:27:15.888Z,4.70
2023-01-12T00:32:22.357Z,4.00
2023-01-12T00:37:28.747Z,4.90
2023-01-12T00:42:54.034Z,4.23
2023-01-12T00:47:59.317Z,3.87
2023-01-12T00:53:04.566Z,4.00
2023-01-12T00:58:12.690Z,4.43
2023-01-12T01:03:24.307Z,4.50
2023-01-12T01:08:33.561Z,4.27
2023-01-12T01:13:41.533Z,3.70
2023-01-12T01:18:58.523Z,4.47
2023-01-12T01:23:56.229Z,4.70
2023-01-12T01:29:04.588Z,4.70
2023-01-12T01:34:12.578Z,3.97
2023-01-12T01:39:18.752Z,4.33
2023-01-12T01:44:36.130Z,4.70
2023-01-12T01:49:49.950Z,3.83
2023-01-12T01:55:18.654Z,4.13
2023-01-12T02:00:17.254Z,5.47
2023-01-12T02:05:33.849Z,4.47
2023-01-12T02:10:44.401Z,4.90
2023-01-12T02:16:14.473Z,3.60
2023-01-12T02:21:34.574Z,4.93
2023-01-12T02:26:49.340Z,4.70
2023-01-12T02:32:15.751Z,4.10
2023-01-12T02:37:32.298Z,4.63
2023-01-12T02:42:58.539Z,3.67
2023-01-12T02:48:09.632Z,3.57
2023-01-12T02:53:22.330Z,4.17
2023-01-12T02:58:35.858Z,4.80
2023-01-12T03:15:52.103Z,4.90
2023-01-12T03:21:00.660Z,3.90
2023-01-12T03:26:12.641Z,4.97
2023-01-12T03:31:20.680Z,5.10
2023-01-12T03:36:39.150Z,5.03
2023-01-12T03:42:18.931Z,5.03
2023-01-12T03:47:30.573Z,5.57
2023-01-12T03:52:38.813Z,3.80
2023-01-12T03:57:47.647Z,4.73
2023-01-12T04:03:06.983Z,4.80
2023-01-12T04:08:14.212Z,4.10
2023-01-12T04:13:20.134Z,4.40
2023-01-12T04:18:26.742Z,4.30
2023-01-12T04:23:33.150Z,4.13
2023-01-12T04:28:44.420Z,4.23
2023-01-12T04:33:53.771Z,3.83
2023-01-12T04:39:06.200Z,4.07
2023-01-12T04:44:20.679Z,3.97
2023-01-12T04:49:30.332Z,3.77
2023-01-12T04:54:39.755Z,3.50
2023-01-12T04:59:47.725Z,3.63
2023-01-12T05:04:56.755Z,3.33
2023-01-12T05:10:22.960Z,4.20
2023-01-12T05:15:28.140Z,3.73
2023-01-12T05:20:34.951Z,4.83
2023-01-12T05:25:42.592Z,3.43
2023-01-12T05:30:48.387Z,3.90
2023-01-12T05:35:54.862Z,4.47
2023-01-12T05:41:07.099Z,4.67
2023-01-12T05:46:25.712Z,4.00
2023-01-12T05:51:32.770Z,4.57
2023-01-12T05:56:39.855Z,3.73
2023-01-12T06:01:45.216Z,5.00
2023-01-12T06:06:52.098Z,4.87
2023-01-12T06:12:15.409Z,3.80
2023-01-12T06:17:21.021Z,3.73
2023-01-12T06:22:27.400Z,4.50
2023-01-12T06:27:36.056Z,3.23
2023-01-12T06:32:41.845Z,3.80
2023-01-12T06:37:47.069Z,4.27
2023-01-12T06:42:52.362Z,2.90
2023-01-12T06:47:57.610Z,3.80
2023-01-12T06:53:05.505Z,2.97
2023-01-12T06:58:10.801Z,2.47
2023-01-12T07:03:18.560Z,3.07
2023-01-12T07:08:23.873Z,2.10
2023-01-12T07:13:29.224Z,3.50
2023-01-12T07:18:34.703Z,1.97
2023-01-12T07:23:41.713Z,3.30
2023-01-12T07:28:46.894Z,4.50
2023-01-12T07:33:55.058Z,3.00
2023-01-12T07:39:01.064Z,2.33
2023-01-12T07:44:06.440Z,2.60
2023-01-12T07:49:11.601Z,2.10
2023-01-12T07:54:17.508Z,2.60
2023-01-12T07:59:23.025Z,2.23
2023-01-12T08:04:31.446Z,7.30
2023-01-12T08:09:38.375Z,4.60
2023-01-12T08:14:45.987Z,2.00
2023-01-12T08:19:58.895Z,2.57
2023-01-12T08:25:20.007Z,2.47
2023-01-12T08:30:51.244Z,2.83
2023-01-12T08:36:10.395Z,2.40
2023-01-12T08:41:36.013Z,2.20
2023-01-12T08:47:04.141Z,2.00
2023-01-12T08:52:14.042Z,2.33
2023-01-12T08:57:24.271Z,2.10
2023-01-12T09:02:49.384Z,1.60
2023-01-12T09:07:59.989Z,2.10
2023-01-12T09:13:14.500Z,1.60
2023-01-12T09:18:27.980Z,1.80
2023-01-12T09:23:41.730Z,1.47
2023-01-12T09:28:56.484Z,1.30
2023-01-12T09:34:05.518Z,1.30
2023-01-12T09:39:27.669Z,1.27
2023-01-12T09:45:03.526Z,1.33
2023-01-12T09:50:50.247Z,1.43
2023-01-12T09:56:22.979Z,1.50
2023-01-12T10:01:47.802Z,1.87
2023-01-12T10:07:02.239Z,2.17
2023-01-12T10:12:29.622Z,2.90
2023-01-12T10:17:58.505Z,1.97
2023-01-12T10:23:18.594Z,1.53
2023-01-12T10:28:39.431Z,2.10
2023-01-12T10:39:48.852Z,1.53
2023-01-12T10:45:25.854Z,1.53
2023-01-12T10:50:54.066Z,1.07
2023-01-12T10:56:17.991Z,1.80
2023-01-12T11:01:53.026Z,1.90
2023-01-12T11:07:35.217Z,3.03
2023-01-12T11:12:52.826Z,0.77
2023-01-12T11:18:27.367Z,1.43
2023-01-12T11:23:48.839Z,1.20
2023-01-12T11:34:36.485Z,2.53
2023-01-12T11:39:53.141Z,1.10
2023-01-12T11:45:18.598Z,1.30
2023-01-12T11:50:44.115Z,1.50
2023-01-12T11:56:01.331Z,2.30
2023-01-12T12:01:21.596Z,2.10
2023-01-12T12:06:36.187Z,2.33
2023-01-12T12:12:09.843Z,1.87
2023-01-12T12:17:55.022Z,2.70
2023-01-12T12:23:28.110Z,4.33
2023-01-12T12:28:56.412Z,2.67
2023-01-12T12:34:16.489Z,1.97
2023-01-12T12:39:40.411Z,1.50
2023-01-12T12:45:17.795Z,2.03
2023-01-12T12:50:34.025Z,1.00
2023-01-12T12:55:41.782Z,3.50
2023-01-12T13:00:53.384Z,14.73
2023-01-12T13:06:22.603Z,13.30
2023-01-12T13:11:56.615Z,2.70
2023-01-12T13:17:06.036Z,1.93
2023-01-12T13:22:36.928Z,4.27
2023-01-12T13:28:00.838Z,4.70
2023-01-12T13:33:17.982Z,2.43
2023-01-12T13:38:39.895Z,1.97
2023-01-12T13:43:57.269Z,1.77
2023-01-12T13:49:06.508Z,1.80
2023-01-12T13:54:17.432Z,2.07
2023-01-12T13:59:24.965Z,2.13
2023-01-12T14:04:47.829Z,2.10
2023-01-12T14:10:00.297Z,1.70
2023-01-12T14:15:35.660Z,5.00
2023-01-12T14:20:53.773Z,3.03
2023-01-12T14:26:13.516Z,2.43
2023-01-12T14:31:37.743Z,3.20
2023-01-12T14:36:47.394Z,1.20
2023-01-12T14:42:13.259Z,2.83
2023-01-12T14:47:29.895Z,1.90
2023-01-12T14:52:36.844Z,1.87
2023-01-12T14:57:43.165Z,1.83
2023-01-12T15:02:51.562Z,2.50
2023-01-12T15:08:05.864Z,5.07
2023-01-12T15:13:16.800Z,3.90
2023-01-12T15:18:40.552Z,6.63
2023-01-12T15:24:05.248Z,4.13
2023-01-12T15:29:11.221Z,3.73
2023-01-12T15:34:16.583Z,5.70
2023-01-12T15:39:22.903Z,6.10
2023-01-12T15:44:28.208Z,7.47
2023-01-12T15:49:33.387Z,3.60
2023-01-12T15:54:38.594Z,3.00
2023-01-12T15:59:44.108Z,3.30
2023-01-12T16:04:49.564Z,1.77
2023-01-12T16:09:59.661Z,2.43
2023-01-12T16:15:31.711Z,1.93
2023-01-12T16:20:42.077Z,1.77
2023-01-12T16:25:51.061Z,1.90
2023-01-12T16:31:09.070Z,2.20
2023-01-12T16:36:15.852Z,1.90
2023-01-12T16:41:22.870Z,1.30
2023-01-12T16:46:28.057Z,4.93
2023-01-12T16:51:37.458Z,3.40
2023-01-12T16:56:43.533Z,4.73
2023-01-12T17:01:50.706Z,6.43
2023-01-12T17:06:56.154Z,4.00
2023-01-12T17:12:03.215Z,5.87
2023-01-12T17:17:12.598Z,2.60
2023-01-12T17:22:19.630Z,2.00
2023-01-12T17:27:26.536Z,1.27
2023-01-12T17:32:32.661Z,1.80
2023-01-12T17:37:38.237Z,2.10
2023-01-12T17:43:01.215Z,2.23
2023-01-12T17:48:06.664Z,2.93
2023-01-12T17:53:13.384Z,2.57
2023-01-12T17:58:18.902Z,1.83
2023-01-12T18:03:24.174Z,1.97
2023-01-12T18:08:29.649Z,2.00
2023-01-12T18:13:36.838Z,2.70
2023-01-12T18:18:45.531Z,2.10
2023-01-12T18:23:52.751Z,2.03
2023-01-12T18:28:59.660Z,1.73
2023-01-12T18:34:08.871Z,2.03
2023-01-12T18:39:21.487Z,1.80
2023-01-12T18:44:48.823Z,2.03
2023-01-12T18:49:58.821Z,2.50
2023-01-12T18:55:05.802Z,1.63
2023-01-12T19:00:14.875Z,2.33
2023-01-12T19:05:22.016Z,2.27
2023-01-12T19:10:29.301Z,2.60
2023-01-12T19:15:57.387Z,2.07
2023-01-12T19:21:20.546Z,3.27
2023-01-12T19:26:54.148Z,1.70
2023-01-12T19:31:50.762Z,1.93
2023-01-12T19:36:55.884Z,2.47
2023-01-12T19:42:19.148Z,2.53
2023-01-12T19:47:29.216Z,2.30
2023-01-12T19:52:35.951Z,1.83
2023-01-12T19:57:43.279Z,2.60
2023-01-12T20:02:52.694Z,1.70
2023-01-12T20:07:58.753Z,1.43
2023-01-12T20:13:04.359Z,1.60
2023-01-12T20:18:11.273Z,2.27
2023-01-12T20:23:16.793Z,1.70
2023-01-12T20:28:22.135Z,1.60
2023-01-12T20:33:28.671Z,1.63
2023-01-12T20:38:36.209Z,2.70
2023-01-12T20:43:41.436Z,1.43
2023-01-12T20:48:48.581Z,1.83
2023-01-12T20:53:53.946Z,2.30
2023-01-12T20:59:00.474Z,1.53
2023-01-12T21:04:05.844Z,1.63
2023-01-12T21:09:11.521Z,2.27
2023-01-12T21:14:17.063Z,1.50
2023-01-12T21:19:22.719Z,1.90
2023-01-12T21:24:28.204Z,1.53
2023-01-12T21:29:34.490Z,2.03
2023-01-12T21:34:39.639Z,2.23
2023-01-12T21:39:51.766Z,1.90
2023-01-12T21:45:06.438Z,2.33
2023-01-12T21:50:14.232Z,1.60
2023-01-12T21:55:20.343Z,5.53
2023-01-12T22:00:25.706Z,8.90
2023-01-12T22:05:31.480Z,7.07
2023-01-12T22:10:36.718Z,1.47
2023-01-12T22:15:45.341Z,1.97
2023-01-12T22:20:51.863Z,1.73
2023-01-12T22:25:58.906Z,6.27
2023-01-12T22:31:12.143Z,2.73
2023-01-12T22:36:18.471Z,1.13
2023-01-12T22:41:25.041Z,1.37
2023-01-12T22:46:30.367Z,1.77
2023-01-12T22:51:35.827Z,1.73
2023-01-12T22:56:41.117Z,1.50
2023-01-12T23:01:46.456Z,1.37
2023-01-12T23:06:52.161Z,1.00
2023-01-12T23:11:57.409Z,1.40
2023-01-12T23:17:02.685Z,1.67
2023-01-12T23:22:08.006Z,1.47
2023-01-12T23:27:13.356Z,1.60
2023-01-12T23:32:24.177Z,1.63
2023-01-12T23:37:31.440Z,1.20
2023-01-12T23:42:36.982Z,1.77
2023-01-12T23:47:43.235Z,1.70
2023-01-12T23:52:50.950Z,1.90
2023-01-12T23:57:57.008Z,1.90
